Time;durP1;ratioP1;P1;durP2;ratioP2;P2;SDS_P1;SDS_P2;PMS_P1;PMS_P2;Temp;Humidity;BMP_temperature;BMP_pressure;BME280_temperature;BME280_humidity;BME280_pressure;Samples;Min_cycle;Max_cycle;Signal;HPM_P1;HPM_P2
2023/07/22 00:01:10;;;;;;;25.55;13.00;;;;;;;14.52;100.00;101247.63;5065934;28;20040;-64
2023/07/22 00:03:35;;;;;;;24.10;12.98;;;;;;;14.46;100.00;101247.69;5062049;28;20526;-61
2023/07/22 00:06:05;;;;;;;25.27;12.77;;;;;;;14.44;100.00;101254.75;5064691;28;20025;-62
2023/07/22 00:08:30;;;;;;;23.35;12.25;;;;;;;14.43;100.00;101248.56;5063443;28;20091;-67
2023/07/22 00:10:56;;;;;;;23.90;12.60;;;;;;;14.43;100.00;101252.97;5064273;28;20048;-68
2023/07/22 00:13:21;;;;;;;24.90;13.18;;;;;;;14.46;100.00;101242.34;5064767;28;20119;-68
2023/07/22 00:15:46;;;;;;;23.90;12.65;;;;;;;14.40;100.00;101239.69;5062862;28;20031;-64
2023/07/22 00:18:12;;;;;;;24.83;13.00;;;;;;;14.39;100.00;101241.50;5065822;28;20020;-68
2023/07/22 00:20:37;;;;;;;23.92;12.18;;;;;;;14.38;100.00;101241.50;5062282;28;20024;-68
2023/07/22 00:23:02;;;;;;;24.83;12.85;;;;;;;14.39;100.00;101243.28;5064838;28;20484;-68
2023/07/22 00:25:28;;;;;;;24.75;13.23;;;;;;;14.38;100.00;101244.16;5063607;28;20426;-66
2023/07/22 00:27:53;;;;;;;25.10;13.20;;;;;;;14.33;100.00;101240.63;5063469;28;20029;-69
2023/07/22 00:30:18;;;;;;;25.08;13.55;;;;;;;14.26;100.00;101243.31;5064993;28;20034;-68
2023/07/22 00:32:44;;;;;;;25.15;12.95;;;;;;;14.22;100.00;101240.69;5061722;28;20055;-68
2023/07/22 00:35:09;;;;;;;25.55;13.13;;;;;;;14.18;100.00;101247.78;5065362;28;20036;-68
2023/07/22 00:37:35;;;;;;;24.73;12.82;;;;;;;14.16;100.00;101254.00;5062856;28;20032;-68
2023/07/22 00:40:05;;;;;;;25.90;13.00;;;;;;;14.26;100.00;101250.41;5063948;28;20032;-68
2023/07/22 00:42:30;;;;;;;25.23;13.30;;;;;;;14.26;100.00;101248.63;5063183;28;20040;-69
2023/07/22 00:44:56;;;;;;;24.25;12.90;;;;;;;14.20;100.00;101235.38;5063265;28;20024;-68
2023/07/22 00:47:22;;;;;;;24.33;12.70;;;;;;;14.19;100.00;101238.03;5063943;28;20034;-67
2023/07/22 00:49:49;;;;;;;24.00;12.45;;;;;;;14.15;100.00;101228.31;5061986;28;20530;-67
2023/07/22 00:52:14;;;;;;;23.80;12.40;;;;;;;14.11;100.00;101230.97;5065110;28;20392;-67
2023/07/22 00:54:40;;;;;;;24.48;12.50;;;;;;;14.08;100.00;101230.09;5057389;28;20060;-68
2023/07/22 00:57:06;;;;;;;23.85;12.10;;;;;;;14.08;100.00;101232.75;5063079;28;20052;-67
2023/07/22 00:59:32;;;;;;;23.20;11.90;;;;;;;14.08;100.00;101228.34;5062669;28;20028;-68
2023/07/22 01:01:57;;;;;;;24.80;12.02;;;;;;;14.04;100.00;101234.56;5063173;28;20222;-67
2023/07/22 01:04:24;;;;;;;23.98;11.60;;;;;;;14.03;100.00;101232.78;5063459;28;20051;-67
2023/07/22 01:06:52;;;;;;;23.88;11.95;;;;;;;14.01;100.00;101238.97;5062219;28;20587;-68
2023/07/22 01:09:18;;;;;;;23.58;12.20;;;;;;;14.03;100.00;101237.22;5064164;28;20029;-67
2023/07/22 01:11:43;;;;;;;23.88;12.32;;;;;;;14.01;100.00;101233.66;5061235;28;20427;-67
2023/07/22 01:14:09;;;;;;;23.90;11.90;;;;;;;13.98;100.00;101223.06;5064349;28;20035;-68
2023/07/22 01:16:35;;;;;;;23.85;12.10;;;;;;;13.94;100.00;101222.19;5061788;28;20033;-68
2023/07/22 01:19:00;;;;;;;23.33;11.77;;;;;;;14.01;100.00;101231.00;5063505;28;20029;-68
2023/07/22 01:21:27;;;;;;;24.30;11.95;;;;;;;13.94;100.00;101225.72;5062925;28;20025;-60
2023/07/22 01:23:53;;;;;;;25.15;12.70;;;;;;;13.94;100.00;101222.19;5062213;28;20036;-63
2023/07/22 01:26:19;;;;;;;24.23;12.52;;;;;;;13.99;100.00;101215.06;5064207;28;20040;-60
2023/07/22 01:28:44;;;;;;;24.23;12.70;;;;;;;13.96;100.00;101217.75;5060966;28;20032;-64
2023/07/22 01:31:10;;;;;;;25.50;13.00;;;;;;;13.95;100.00;101218.66;5056893;28;20079;-63
2023/07/22 01:33:35;;;;;;;25.92;13.52;;;;;;;13.92;100.00;101224.84;5063777;28;20025;-60
2023/07/22 01:36:01;;;;;;;24.65;13.00;;;;;;;13.91;100.00;101212.44;5062369;28;20082;-61
2023/07/22 01:38:27;;;;;;;24.35;12.80;;;;;;;13.86;100.00;101214.25;5062634;28;20025;-65
2023/07/22 01:40:52;;;;;;;24.80;12.85;;;;;;;13.86;100.00;101214.25;5063447;28;20593;-66
2023/07/22 01:43:17;;;;;;;24.73;12.68;;;;;;;13.90;100.00;101210.66;5061101;28;20400;-63
2023/07/22 01:45:43;;;;;;;24.60;12.65;;;;;;;13.89;100.00;101208.94;5064572;28;20028;-65
2023/07/22 01:48:08;;;;;;;24.95;13.13;;;;;;;13.86;100.00;101211.59;5061443;28;20027;-63
2023/07/22 01:50:34;;;;;;;24.52;12.70;;;;;;;13.85;100.00;101212.47;5063464;28;20048;-65
2023/07/22 01:52:59;;;;;;;25.15;13.43;;;;;;;13.84;100.00;101210.69;5062397;28;20025;-62
2023/07/22 01:55:24;;;;;;;25.00;13.35;;;;;;;13.84;100.00;101202.72;5062477;28;20025;-64
2023/07/22 01:57:50;;;;;;;25.77;13.43;;;;;;;13.86;100.00;101206.28;5063318;28;20045;-61
2023/07/22 02:00:15;;;;;;;25.92;13.38;;;;;;;13.81;100.00;101202.75;5060946;28;20041;-66
2023/07/22 02:02:43;;;;;;;25.30;13.25;;;;;;;13.81;100.00;101208.06;5064426;28;20032;-63
2023/07/22 02:05:10;;;;;;;24.70;12.88;;;;;;;13.82;100.00;101206.28;5060720;28;20033;-65
2023/07/22 02:07:35;;;;;;;26.25;13.50;;;;;;;13.78;100.00;101203.63;5063687;28;20123;-62
2023/07/22 02:10:01;;;;;;;25.38;13.23;;;;;;;13.77;100.00;101206.28;5061873;28;20024;-61
2023/07/22 02:12:26;;;;;;;24.08;12.60;;;;;;;13.74;100.00;101201.00;5062056;28;20112;-64
2023/07/22 02:14:52;;;;;;;25.35;13.20;;;;;;;13.73;100.00;101201.88;5063515;28;20076;-61
2023/07/22 02:17:17;;;;;;;24.80;12.57;;;;;;;13.69;100.00;101194.78;5060748;28;20029;-65
2023/07/22 02:19:43;;;;;;;25.17;13.32;;;;;;;13.64;100.00;101197.47;5063937;28;20036;-65
2023/07/22 02:22:09;;;;;;;25.10;13.00;;;;;;;13.65;100.00;101193.94;5060844;28;20033;-62
2023/07/22 02:24:34;;;;;;;25.00;13.23;;;;;;;13.65;100.00;101187.75;5063012;28;20064;-69
2023/07/22 02:26:59;;;;;;;25.73;13.25;;;;;;;13.62;100.00;101188.63;5064841;28;20111;-69
2023/07/22 02:29:25;;;;;;;27.05;13.77;;;;;;;13.66;100.00;101192.16;5066066;28;20091;-70
2023/07/22 02:31:50;;;;;;;27.13;13.52;;;;;;;13.63;100.00;101194.81;5067149;28;20378;-70
2023/07/22 02:34:16;;;;;;;25.08;13.25;;;;;;;13.60;100.00;101187.72;5064160;28;20433;-69
2023/07/22 02:36:41;;;;;;;25.63;12.95;;;;;;;13.58;100.00;101195.72;5067733;28;20078;-70
2023/07/22 02:39:09;;;;;;;25.63;13.38;;;;;;;13.59;100.00;101193.97;5064609;28;20396;-70
2023/07/22 02:41:36;;;;;;;24.95;12.77;;;;;;;13.53;100.00;101189.53;5066639;28;20032;-70
2023/07/22 02:44:03;;;;;;;24.65;13.07;;;;;;;13.49;100.00;101186.91;5065273;28;20395;-68
2023/07/22 02:46:28;;;;;;;25.95;13.25;;;;;;;13.44;100.00;101189.56;5065908;28;20029;-70
2023/07/22 02:48:54;;;;;;;25.92;13.48;;;;;;;13.34;100.00;101183.38;5066110;28;20052;-69
2023/07/22 02:51:20;;;;;;;25.30;13.18;;;;;;;13.30;100.00;101192.19;5064897;28;20547;-70
2023/07/22 02:53:46;;;;;;;26.20;13.57;;;;;;;13.15;100.00;101193.13;5067325;28;20031;-70
2023/07/22 02:56:12;;;;;;;25.77;13.65;;;;;;;13.11;100.00;101195.78;5059740;28;20036;-66
2023/07/22 02:58:37;;;;;;;26.75;13.63;;;;;;;13.05;100.00;101186.91;5066728;28;20040;-69
2023/07/22 03:01:04;;;;;;;27.05;13.73;;;;;;;12.97;100.00;101185.16;5064704;28;20047;-69
2023/07/22 03:03:32;;;;;;;26.27;13.43;;;;;;;12.95;100.00;101189.59;5065734;28;20036;-70
2023/07/22 03:05:58;;;;;;;25.52;13.30;;;;;;;12.87;100.00;101186.91;5065617;28;20036;-69
2023/07/22 03:08:24;;;;;;;26.55;13.95;;;;;;;12.79;100.00;101186.91;5064514;28;20029;-69
2023/07/22 03:10:50;;;;;;;25.67;13.75;;;;;;;12.79;100.00;101188.69;5065274;28;20395;-69
2023/07/22 03:13:16;;;;;;;27.33;13.73;;;;;;;12.72;100.00;101193.09;5063384;28;20029;-68
2023/07/22 03:15:42;;;;;;;25.98;13.77;;;;;;;12.64;100.00;101190.44;5059401;28;20029;-69
2023/07/22 03:18:08;;;;;;;25.45;13.82;;;;;;;12.61;100.00;101200.16;5066806;28;20029;-69
2023/07/22 03:20:33;;;;;;;26.60;13.35;;;;;;;12.58;100.00;101200.16;5064234;28;20111;-65
2023/07/22 03:22:59;;;;;;;25.95;13.52;;;;;;;12.56;100.00;101208.97;5064967;28;20132;-64
2023/07/22 03:25:24;;;;;;;26.27;13.55;;;;;;;12.51;100.00;101210.75;5065782;28;20036;-62
2023/07/22 03:27:50;;;;;;;26.02;14.05;;;;;;;12.48;100.00;101210.75;5063638;28;20025;-64
2023/07/22 03:30:16;;;;;;;26.38;13.30;;;;;;;12.39;100.00;101208.06;5066905;28;20070;-65
2023/07/22 03:32:47;;;;;;;27.38;13.93;;;;;;;12.41;100.00;101210.72;5059045;28;20021;-61
2023/07/22 03:35:13;;;;;;;26.33;13.55;;;;;;;12.34;100.00;101207.16;5059121;28;20475;-65
2023/07/22 03:37:39;;;;;;;27.90;14.18;;;;;;;12.32;100.00;101215.13;5065742;28;20085;-64
2023/07/22 03:40:30;;;;;;;26.63;13.45;;;;;;;12.30;100.00;101213.34;5064171;28;20033;-65
2023/07/22 03:42:51;;;;;;;25.70;13.55;;;;;;;12.27;100.00;101208.03;5060431;28;20071;-61
2023/07/22 03:45:18;;;;;;;24.98;13.02;;;;;;;12.26;100.00;101219.50;5066245;28;20025;-62
2023/07/22 03:47:59;;;;;;;25.88;13.23;;;;;;;12.24;100.00;101210.69;5061532;28;20478;-64
2023/07/22 03:50:25;;;;;;;26.75;13.48;;;;;;;12.20;100.00;101215.97;5061735;28;20541;-65
2023/07/22 03:52:51;;;;;;;25.75;13.85;;;;;;;12.18;100.00;101211.53;5065667;28;20112;-64
2023/07/22 03:55:16;;;;;;;26.63;13.52;;;;;;;12.15;100.00;101212.41;5062679;28;20158;-65
2023/07/22 03:57:42;;;;;;;25.77;13.57;;;;;;;12.14;100.00;101215.06;5058396;28;20060;-65
2023/07/22 04:00:10;;;;;;;27.45;13.75;;;;;;;12.14;100.00;101215.91;5065620;28;20027;-64
2023/07/22 04:02:36;;;;;;;26.63;14.00;;;;;;;12.12;100.00;101217.69;5063378;28;20040;-63
2023/07/22 04:05:01;;;;;;;26.33;13.60;;;;;;;12.10;100.00;101214.16;5064499;28;20051;-64
2023/07/22 04:07:26;;;;;;;25.70;13.30;;;;;;;12.13;100.00;101208.88;5064628;28;20036;-63
2023/07/22 04:09:52;;;;;;;25.42;13.02;;;;;;;12.18;100.00;101207.09;5063155;28;20104;-63
2023/07/22 04:12:17;;;;;;;26.77;13.38;;;;;;;12.16;100.00;101205.34;5065692;28;20113;-61
2023/07/22 04:14:43;;;;;;;25.63;13.23;;;;;;;12.15;100.00;101207.09;5062467;28;20040;-65
2023/07/22 04:17:08;;;;;;;26.40;13.23;;;;;;;12.14;100.00;101210.63;5065147;28;20107;-62
2023/07/22 04:19:33;;;;;;;25.83;12.93;;;;;;;12.18;100.00;101211.53;5063422;28;20038;-65
2023/07/22 04:22:03;;;;;;;27.00;13.90;;;;;;;12.18;100.00;101212.41;5063800;28;20021;-63
2023/07/22 04:24:32;;;;;;;25.75;13.38;;;;;;;12.16;100.00;101214.19;5063815;28;20028;-64
2023/07/22 04:26:58;;;;;;;27.23;13.65;;;;;;;12.16;100.00;101216.84;5063517;28;20036;-61
2023/07/22 04:29:23;;;;;;;25.92;13.70;;;;;;;12.18;100.00;101212.41;5064853;28;20032;-69
2023/07/22 04:31:48;;;;;;;24.70;12.70;;;;;;;12.20;100.00;101215.06;5062132;28;20021;-70
2023/07/22 04:34:14;;;;;;;25.60;13.57;;;;;;;12.22;100.00;101213.31;5065488;28;20060;-69
2023/07/22 04:36:39;;;;;;;26.08;13.45;;;;;;;12.20;100.00;101215.06;5062107;28;20476;-69
2023/07/22 04:39:05;;;;;;;25.02;12.88;;;;;;;12.24;100.00;101215.97;5064317;28;20033;-69
2023/07/22 04:41:31;;;;;;;25.85;13.25;;;;;;;12.27;100.00;101226.59;5063562;28;20024;-69
2023/07/22 04:43:58;;;;;;;24.88;13.07;;;;;;;12.28;100.00;101223.06;5062850;28;20033;-70
2023/07/22 04:46:25;;;;;;;26.73;13.65;;;;;;;12.34;100.00;101220.44;5064200;28;20056;-69
2023/07/22 04:48:51;;;;;;;26.38;13.13;;;;;;;12.39;100.00;101226.59;5061714;28;20036;-69
2023/07/22 04:51:16;;;;;;;25.92;13.20;;;;;;;12.49;100.00;101223.09;5065057;28;20039;-69
2023/07/22 04:53:41;;;;;;;25.88;12.98;;;;;;;12.62;100.00;101218.72;5061581;28;20120;-70
2023/07/22 04:56:06;;;;;;;26.00;12.73;;;;;;;12.72;100.00;101219.63;5064360;28;20089;-69
2023/07/22 04:58:32;;;;;;;25.80;13.43;;;;;;;12.83;100.00;101225.84;5062681;28;20049;-69
2023/07/22 05:00:58;;;;;;;26.75;13.20;;;;;;;12.90;100.00;101235.56;5062879;28;20040;-69
2023/07/22 05:03:26;;;;;;;25.10;13.32;;;;;;;12.96;100.00;101228.47;5064052;28;20032;-69
2023/07/22 05:05:52;;;;;;;25.13;12.65;;;;;;;13.03;100.00;101230.25;5061935;28;20033;-69
2023/07/22 05:08:17;;;;;;;25.20;12.85;;;;;;;13.04;100.00;101235.56;5064698;28;20081;-69
2023/07/22 05:10:43;;;;;;;25.55;12.77;;;;;;;13.10;100.00;101232.03;5061487;28;20029;-70
2023/07/22 05:13:08;;;;;;;26.48;13.30;;;;;;;13.14;100.00;101232.94;5063972;28;20383;-69
2023/07/22 05:15:33;;;;;;;24.42;12.40;;;;;;;13.21;100.00;101227.59;5062361;28;20040;-70
2023/07/22 05:17:59;;;;;;;24.83;12.57;;;;;;;13.24;100.00;101232.91;5063034;28;20071;-70
2023/07/22 05:20:24;;;;;;;24.10;12.45;;;;;;;13.31;100.00;101231.16;5063767;28;20035;-70
2023/07/22 05:22:49;;;;;;;25.73;12.93;;;;;;;13.36;100.00;101240.00;5061503;28;20036;-69
2023/07/22 05:25:15;;;;;;;25.88;12.77;;;;;;;13.34;100.00;101230.25;5064497;28;20037;-69
2023/07/22 05:27:41;;;;;;;25.00;12.50;;;;;;;13.34;100.00;101235.56;5061158;28;20025;-70
2023/07/22 05:30:07;;;;;;;24.90;12.73;;;;;;;13.35;100.00;101232.06;5063804;28;20158;-70
2023/07/22 05:32:32;;;;;;;25.38;12.18;;;;;;;13.38;100.00;101232.03;5062312;28;20532;-70
2023/07/22 05:34:58;;;;;;;25.17;12.15;;;;;;;13.47;100.00;101231.16;5062184;28;20032;-69
2023/07/22 05:37:24;;;;;;;25.27;12.63;;;;;;;13.59;100.00;101232.00;5063903;28;20107;-70
2023/07/22 05:39:49;;;;;;;24.85;12.23;;;;;;;13.75;100.00;101230.22;5061110;28;20021;-68
2023/07/22 05:42:15;;;;;;;25.45;12.57;;;;;;;13.89;100.00;101227.53;5064396;28;20107;-68
2023/07/22 05:44:40;;;;;;;25.25;12.70;;;;;;;14.02;100.00;101231.00;5061493;28;20151;-68
2023/07/22 05:47:05;;;;;;;25.38;11.95;;;;;;;14.05;100.00;101227.44;5063483;28;20036;-69
2023/07/22 05:49:31;;;;;;;25.77;12.02;;;;;;;14.06;100.00;101226.56;5062407;28;20111;-69
2023/07/22 05:51:56;;;;;;;24.75;12.23;;;;;;;13.98;100.00;101226.63;5062171;28;20025;-68
2023/07/22 05:54:22;;;;;;;25.60;12.43;;;;;;;14.00;100.00;101229.25;5063556;28;20032;-69
2023/07/22 05:56:47;;;;;;;24.90;12.65;;;;;;;13.97;100.00;101230.16;5060993;28;20037;-68
2023/07/22 05:59:12;;;;;;;26.80;12.63;;;;;;;14.02;100.00;101220.38;5055820;28;20110;-69
2023/07/22 06:01:38;;;;;;;25.27;12.40;;;;;;;14.11;100.00;101217.69;5063772;28;20071;-67
2023/07/22 06:04:04;;;;;;;25.33;12.20;;;;;;;14.15;100.00;101226.53;5067172;28;20025;-68
2023/07/22 06:06:30;;;;;;;25.77;12.85;;;;;;;14.22;100.00;101228.25;5066469;28;20039;-69
2023/07/22 06:08:55;;;;;;;25.33;12.85;;;;;;;14.29;100.00;101219.38;5065685;28;20025;-69
2023/07/22 06:11:21;;;;;;;26.20;13.00;;;;;;;14.35;100.00;101225.56;5067852;28;20032;-68
2023/07/22 06:13:46;;;;;;;26.17;12.80;;;;;;;14.51;100.00;101219.25;5064529;28;20037;-69
2023/07/22 06:16:12;;;;;;;25.50;13.02;;;;;;;14.58;100.00;101223.66;5068042;28;20048;-68
2023/07/22 06:18:37;;;;;;;26.60;13.00;;;;;;;14.67;100.00;101229.84;5065437;28;20021;-70
2023/07/22 06:21:03;;;;;;;26.15;12.75;;;;;;;14.72;100.00;101217.38;5066451;28;20029;-67
2023/07/22 06:23:28;;;;;;;26.58;13.13;;;;;;;14.81;100.00;101209.34;5066398;28;20218;-66
2023/07/22 06:25:53;;;;;;;25.70;12.65;;;;;;;14.95;100.00;101214.56;5065262;28;20028;-65
2023/07/22 06:28:19;;;;;;;25.83;13.25;;;;;;;14.97;100.00;101211.00;5067685;28;20048;-66
2023/07/22 06:30:44;;;;;;;28.85;13.88;;;;;;;14.98;100.00;101215.44;5064308;28;20056;-61
2023/07/22 06:33:09;;;;;;;26.30;13.35;;;;;;;14.96;100.00;101216.31;5067451;28;20037;-66
2023/07/22 06:35:35;;;;;;;26.38;13.50;;;;;;;14.94;100.00;101213.69;5065265;28;20025;-61
2023/07/22 06:38:00;;;;;;;27.08;13.98;;;;;;;15.01;100.00;101211.84;5065959;28;20032;-66
2023/07/22 06:40:25;;;;;;;27.90;14.43;;;;;;;15.10;100.00;101210.88;5066505;28;20047;-64
2023/07/22 06:42:51;;;;;;;26.27;13.65;;;;;;;15.20;100.00;101215.22;5062932;28;20388;-64
2023/07/22 06:45:17;;;;;;;27.25;14.38;;;;;;;15.28;100.00;101201.84;5067676;28;20085;-65
2023/07/22 06:47:43;;;;;;;27.08;14.38;;;;;;;15.37;100.00;101195.56;5064108;28;20033;-61
2023/07/22 06:50:09;;;;;;;27.63;14.18;;;;;;;15.39;100.00;101199.97;5067177;28;20051;-65
2023/07/22 06:52:34;;;;;;;28.70;14.35;;;;;;;15.40;100.00;101192.84;5065389;28;20375;-63
2023/07/22 06:55:00;;;;;;;28.73;14.10;;;;;;;15.45;100.00;101193.66;5065168;28;20475;-65
2023/07/22 06:57:26;;;;;;;28.20;14.70;;;;;;;15.54;100.00;101201.59;5065960;28;20045;-65
2023/07/22 06:59:54;;;;;;;26.75;13.45;;;;;;;15.57;100.00;101196.22;5064349;28;20040;-66
2023/07/22 07:02:19;;;;;;;28.05;14.50;;;;;;;15.61;100.00;101195.31;5066904;28;20027;-62
2023/07/22 07:04:45;;;;;;;28.23;14.18;;;;;;;15.68;100.00;101194.34;5063669;28;20391;-60
2023/07/22 07:07:12;;;;;;;27.52;14.35;;;;;;;15.91;100.00;101201.19;5066897;28;20482;-60
2023/07/22 07:09:38;;;;;;;26.10;13.68;;;;;;;16.09;100.00;101193.88;5064214;28;20083;-66
2023/07/22 07:12:03;;;;;;;27.75;13.48;;;;;;;16.10;100.00;101188.50;5064672;28;20037;-64
2023/07/22 07:14:29;;;;;;;27.70;13.55;;;;;;;16.14;100.00;101187.56;5065402;28;20032;-62
2023/07/22 07:16:54;;;;;;;25.65;13.02;;;;;;;16.12;100.00;101193.81;5064105;28;20025;-61
2023/07/22 07:19:20;;;;;;;27.30;13.52;;;;;;;16.15;100.00;101194.69;5065420;28;20063;-60
2023/07/22 07:21:45;;;;;;;26.95;13.93;;;;;;;16.16;100.00;101203.56;5063517;28;20037;-62
2023/07/22 07:24:11;;;;;;;26.48;13.50;;;;;;;16.14;100.00;101200.03;5066187;28;20115;-65
2023/07/22 07:26:36;;;;;;;26.75;13.38;;;;;;;16.16;100.00;101196.44;5064241;28;20029;-61
2023/07/22 07:29:01;;;;;;;25.73;12.77;;;;;;;16.21;100.00;101191.06;5065341;28;20028;-62
2023/07/22 07:31:27;;;;;;;27.80;13.02;;;;;;;16.29;100.00;101189.13;5064297;28;20032;-64
2023/07/22 07:33:53;;;;;;;26.23;12.88;;;;;;;16.45;100.00;101192.47;5063621;28;20029;-63
2023/07/22 07:36:18;;;;;;;25.85;12.70;;;;;;;16.57;100.00;101188.75;5066600;28;20033;-64
2023/07/22 07:38:44;;;;;;;27.65;12.85;;;;;;;16.71;100.00;101192.06;5062940;28;20032;-66
2023/07/22 07:41:11;;;;;;;25.05;12.48;;;;;;;16.99;100.00;101186.31;5066148;28;20033;-65
2023/07/22 07:43:37;;;;;;;25.17;12.43;;;;;;;17.19;100.00;101201.13;5063901;28;20485;-66
2023/07/22 07:46:31;;;;;;;24.10;12.00;;;;;;;17.24;100.00;101194.81;5064586;28;20025;-66
2023/07/22 07:49:00;;;;;;;24.25;11.90;;;;;;;17.26;100.00;101194.78;5044530;28;20045;-66
2023/07/22 07:51:27;;;;;;;24.40;12.05;;;;;;;17.33;100.00;101196.44;5065281;28;20032;-65
2023/07/22 07:53:53;;;;;;;25.25;11.95;;;;;;;17.46;100.00;101196.19;5063269;28;20032;-62
2023/07/22 07:56:19;;;;;;;24.67;11.45;;;;;;;17.72;100.00;101203.72;5066169;28;20356;-66
2023/07/22 07:58:47;;;;;;;24.98;11.10;;;;;;;17.76;100.00;101200.94;5058532;28;20094;-63
2023/07/22 08:01:12;;;;;;;24.90;11.57;;;;;;;17.69;100.00;101203.78;5065853;28;20052;-62
2023/07/22 08:03:39;;;;;;;23.92;11.25;;;;;;;17.57;100.00;101194.22;5063451;28;20090;-66
2023/07/22 08:06:06;;;;;;;23.58;11.25;;;;;;;17.71;100.00;101207.31;5064620;28;20021;-61
2023/07/22 08:08:32;;;;;;;24.13;10.95;;;;;;;17.68;100.00;101204.69;5064333;28;20525;-65
2023/07/22 08:11:08;;;;;;;24.77;11.43;;;;;;;17.70;100.00;101200.19;5063764;28;20033;-66
2023/07/22 08:13:34;;;;;;;23.58;11.02;;;;;;;17.72;100.00;101201.03;5063729;28;20479;-61
2023/07/22 08:16:03;;;;;;;24.05;10.63;;;;;;;17.87;100.00;101202.56;5063953;28;20392;-61
2023/07/22 08:18:29;;;;;;;24.80;11.13;;;;;;;17.89;100.00;101190.00;5064453;28;20056;-65
2023/07/22 08:20:55;;;;;;;24.10;10.90;;;;;;;17.97;100.00;101192.56;5062888;28;20024;-61
2023/07/22 08:23:20;;;;;;;24.67;10.73;;;;;;;17.94;100.00;101199.75;5064783;28;20025;-62
2023/07/22 08:25:46;;;;;;;23.17;10.15;;;;;;;17.77;100.00;101200.03;5062107;28;20484;-70
2023/07/22 08:28:12;;;;;;;23.88;10.07;;;;;;;17.66;100.00;101207.38;5065135;28;20033;-70
2023/07/22 08:30:39;;;;;;;23.50;10.43;;;;;;;17.52;100.00;101215.69;5063088;28;20037;-69
2023/07/22 08:33:05;;;;;;;22.45;9.90;;;;;;;17.67;100.00;101205.63;5063928;28;20468;-71
2023/07/22 08:35:30;;;;;;;23.10;9.88;;;;;;;17.89;100.00;101212.28;5062609;28;20027;-70
2023/07/22 08:37:56;;;;;;;22.45;9.52;;;;;;;18.05;100.00;101201.31;5062860;28;20472;-70
2023/07/22 08:40:21;;;;;;;23.20;9.60;;;;;;;18.21;100.00;101200.06;5065037;28;20426;-70
2023/07/22 08:42:50;;;;;;;22.55;9.40;;;;;;;18.39;100.00;101206.81;5061730;28;20590;-70
2023/07/22 08:45:16;;;;;;;22.10;9.43;;;;;;;18.76;100.00;101211.31;5065375;28;20036;-70
2023/07/22 08:47:51;;;;;;;22.83;9.60;;;;;;;18.80;100.00;101204.09;5062108;28;20025;-70
2023/07/22 08:50:21;;;;;;;21.73;8.60;;;;;;;19.16;100.00;101205.00;5057637;28;20029;-71
2023/07/22 08:52:47;;;;;;;20.90;8.40;;;;;;;19.29;100.00;101205.53;5057858;28;20159;-62
2023/07/22 08:55:13;;;;;;;21.23;8.02;;;;;;;19.43;100.00;101189.09;5064651;28;20495;-70
2023/07/22 08:57:39;;;;;;;21.02;7.78;;;;;;;19.43;100.00;101202.50;5061164;28;20063;-70
2023/07/22 09:00:06;;;;;;;21.05;7.45;;;;;;;19.72;100.00;101203.50;5064710;28;20116;-70
2023/07/22 09:02:35;;;;;;;21.92;7.38;;;;;;;19.97;100.00;101202.84;5061723;28;20124;-70
2023/07/22 09:05:01;;;;;;;22.95;8.25;;;;;;;20.17;100.00;101196.91;5063959;28;20535;-70
2023/07/22 09:07:26;;;;;;;20.45;7.38;;;;;;;20.17;100.00;101204.94;5062687;28;20054;-67
2023/07/22 09:09:53;;;;;;;21.83;8.05;;;;;;;19.92;100.00;101196.72;5062920;28;20027;-70
2023/07/22 09:12:21;;;;;;;20.35;7.78;;;;;;;19.81;100.00;101202.41;5063644;28;20040;-69
2023/07/22 09:14:48;;;;;;;20.55;6.85;;;;;;;19.99;100.00;101198.31;5061804;28;20025;-70
2023/07/22 09:17:13;;;;;;;20.35;6.97;;;;;;;20.14;100.00;101195.19;5064658;28;20028;-70
2023/07/22 09:19:39;;;;;;;20.13;6.20;;;;;;;20.08;97.47;101200.72;5061202;28;20040;-70
2023/07/22 09:22:04;;;;;;;19.15;6.22;;;;;;;19.85;95.32;101213.00;5064501;28;20025;-71
2023/07/22 09:24:30;;;;;;;18.65;6.68;;;;;;;20.11;100.00;101194.38;5061915;28;20032;-70
2023/07/22 09:26:59;;;;;;;19.63;6.90;;;;;;;20.61;95.27;101196.44;5062979;28;20028;-70
2023/07/22 09:29:35;;;;;;;19.75;6.63;;;;;;;20.70;98.83;101197.03;5063293;28;20021;-70
2023/07/22 09:32:00;;;;;;;20.30;7.07;;;;;;;20.79;92.71;101193.16;5063674;28;20033;-64
2023/07/22 09:34:25;;;;;;;20.15;7.25;;;;;;;20.61;98.77;101188.38;5062464;28;20090;-64
2023/07/22 09:36:56;;;;;;;20.10;6.90;;;;;;;20.47;94.71;101219.22;5062080;28;20430;-61
2023/07/22 09:39:22;;;;;;;20.05;6.55;;;;;;;20.27;94.53;101202.84;5063343;28;20111;-65
2023/07/22 09:41:48;;;;;;;19.95;6.32;;;;;;;20.43;91.53;101200.56;5060264;28;20373;-61
2023/07/22 09:44:13;;;;;;;19.70;6.65;;;;;;;20.59;90.78;101182.16;5063831;28;20035;-60
2023/07/22 09:46:39;;;;;;;17.83;6.25;;;;;;;20.50;94.12;101196.75;5061012;28;20044;-63
2023/07/22 09:49:08;;;;;;;18.65;5.85;;;;;;;20.38;94.20;101204.25;5063867;28;20029;-62
2023/07/22 09:51:38;;;;;;;19.38;6.07;;;;;;;20.08;96.66;101187.31;5061251;28;20480;-63
2023/07/22 09:54:05;;;;;;;20.70;6.75;;;;;;;19.88;98.80;101178.94;5062668;28;20494;-65
2023/07/22 09:56:32;;;;;;;19.05;6.30;;;;;;;19.93;100.00;101174.34;5061436;28;20025;-61
2023/07/22 09:59:05;;;;;;;20.70;6.45;;;;;;;20.19;100.00;101174.44;5062553;28;20132;-64
2023/07/22 10:01:32;;;;;;;18.20;5.80;;;;;;;20.37;100.00;101180.16;5061457;28;20023;-61
2023/07/22 10:03:58;;;;;;;18.75;5.78;;;;;;;20.58;94.98;101201.91;5063148;28;20368;-64
2023/07/22 10:06:27;;;;;;;18.90;5.63;;;;;;;20.47;92.69;101180.75;5062491;28;20052;-64
2023/07/22 10:08:53;;;;;;;19.00;5.80;;;;;;;20.38;96.53;101190.84;5062044;28;20036;-63
2023/07/22 10:11:18;;;;;;;19.90;5.90;;;;;;;20.42;95.19;101183.59;5063580;28;20037;-64
2023/07/22 10:13:44;;;;;;;19.20;6.03;;;;;;;20.40;96.70;101190.78;5060756;28;20426;-65
2023/07/22 10:16:10;;;;;;;20.40;6.53;;;;;;;20.42;100.00;101193.47;5064247;28;20033;-61
2023/07/22 10:18:37;;;;;;;17.80;6.18;;;;;;;20.67;94.84;101183.72;5060684;28;20036;-63
2023/07/22 10:21:03;;;;;;;18.08;5.95;;;;;;;20.86;89.88;101189.34;5063299;28;20033;-61
2023/07/22 10:23:30;;;;;;;17.30;4.85;;;;;;;20.92;85.54;101188.28;5061876;28;20028;-65
2023/07/22 10:25:57;;;;;;;18.30;4.72;;;;;;;20.86;84.23;101192.03;5062499;28;20036;-64
2023/07/22 10:28:23;;;;;;;17.20;4.80;;;;;;;20.83;81.31;101176.03;5062571;28;20545;-63
2023/07/22 10:30:49;;;;;;;16.70;4.43;;;;;;;21.17;82.58;101187.44;5061685;28;20375;-65
2023/07/22 10:33:16;;;;;;;17.20;4.40;;;;;;;21.29;77.70;101184.34;5063267;28;20029;-63
2023/07/22 10:35:44;;;;;;;15.70;4.00;;;;;;;21.14;75.35;101198.31;5060444;28;20112;-62
2023/07/22 10:38:11;;;;;;;16.08;3.97;;;;;;;21.02;71.11;101189.72;5056835;28;20083;-62
2023/07/22 10:40:55;;;;;;;14.75;3.90;;;;;;;21.15;73.96;101189.31;5063745;28;20306;-70
2023/07/22 10:43:27;;;;;;;12.73;3.97;;;;;;;21.62;70.04;101183.22;5058724;28;20554;-70
2023/07/22 10:45:54;;;;;;;16.30;4.03;;;;;;;22.34;66.23;101176.91;5062311;28;20086;-70
2023/07/22 10:48:21;;;;;;;14.10;3.70;;;;;;;22.58;60.34;101186.72;5064451;28;20025;-70
2023/07/22 10:50:57;;;;;;;11.82;3.78;;;;;;;22.66;63.52;101174.75;5066821;28;20024;-70
2023/07/22 10:53:25;;;;;;;10.35;3.30;;;;;;;23.36;58.96;101162.81;5065110;28;20074;-70
2023/07/22 10:56:09;;;;;;;14.63;3.38;;;;;;;23.12;60.97;101160.25;5066376;28;20383;-70
2023/07/22 10:58:43;;;;;;;11.52;3.20;;;;;;;22.78;59.42;101182.34;5066598;28;20503;-70
2023/07/22 11:01:30;;;;;;;12.63;3.45;;;;;;;22.83;58.27;101174.94;5059749;28;20546;-70